Time;durP1;ratioP1;P1;durP2;ratioP2;P2;SDS_P1;SDS_P2;PMS_P1;PMS_P2;Temp;Humidity;BMP_temperature;BMP_pressure;BME280_temperature;BME280_humidity;BME280_pressure;Samples;Min_cycle;Max_cycle;Signal;HPM_P1;HPM_P2
2022/09/08 00:01:18;;;;;;;8.52;4.70;;;;;;;18.94;100.00;100792.50;5053400;28;20037;-59
2022/09/08 00:03:46;;;;;;;10.55;4.70;;;;;;;18.87;100.00;100784.25;5052583;28;20076;-61
2022/09/08 00:06:17;;;;;;;9.35;4.80;;;;;;;18.84;100.00;100782.78;5052873;28;20067;-59
2022/09/08 00:08:48;;;;;;;10.55;5.07;;;;;;;18.85;100.00;100784.41;5053046;28;20127;-58
2022/09/08 00:11:19;;;;;;;10.23;4.80;;;;;;;18.90;100.00;100774.16;5053193;28;20491;-60
2022/09/08 00:13:48;;;;;;;9.95;4.63;;;;;;;18.87;100.00;100770.94;5052786;28;20833;-60
2022/09/08 00:16:18;;;;;;;8.00;4.82;;;;;;;18.82;100.00;100767.94;5053102;28;20119;-58
2022/09/08 00:18:50;;;;;;;11.80;5.28;;;;;;;18.81;100.00;100766.25;5051914;28;20052;-59
2022/09/08 00:21:18;;;;;;;9.27;4.70;;;;;;;18.72;100.00;100763.53;5053157;28;20084;-57
2022/09/08 00:23:48;;;;;;;8.77;5.15;;;;;;;18.75;100.00;100757.06;5053198;28;20049;-60
2022/09/08 00:26:16;;;;;;;11.35;5.15;;;;;;;18.77;100.00;100751.56;5052987;28;20532;-59
2022/09/08 00:28:44;;;;;;;9.10;5.20;;;;;;;18.79;100.00;100745.09;5052795;28;20052;-58
2022/09/08 00:31:12;;;;;;;9.25;5.50;;;;;;;18.72;100.00;100744.06;5052461;28;20128;-60
2022/09/08 00:33:42;;;;;;;11.98;6.22;;;;;;;18.65;100.00;100750.97;5052767;28;20614;-59
2022/09/08 00:36:15;;;;;;;10.95;5.72;;;;;;;18.70;100.00;100746.03;5052934;28;20045;-57
2022/09/08 00:38:44;;;;;;;12.15;5.65;;;;;;;18.59;100.00;100747.94;5052484;28;20072;-56
2022/09/08 00:41:13;;;;;;;8.20;4.57;;;;;;;18.56;100.00;100758.91;5052533;28;20044;-54
2022/09/08 00:43:49;;;;;;;10.85;5.20;;;;;;;18.57;100.00;100755.25;5052547;28;20380;-58
2022/09/08 00:46:28;;;;;;;11.50;5.28;;;;;;;18.54;100.00;100749.41;5051456;28;20059;-58
2022/09/08 00:49:03;;;;;;;11.05;4.10;;;;;;;18.54;100.00;100749.41;5052329;28;20507;-58
2022/09/08 00:51:32;;;;;;;6.60;3.42;;;;;;;18.45;100.00;100745.00;5052356;28;20045;-50
2022/09/08 00:54:01;;;;;;;8.25;3.00;;;;;;;18.40;100.00;100743.63;5051078;28;20075;-58
2022/09/08 00:56:31;;;;;;;7.45;3.22;;;;;;;18.53;100.00;100743.25;5052380;28;20519;-52
2022/09/08 00:59:02;;;;;;;8.68;3.15;;;;;;;18.56;100.00;100732.28;5052260;28;20575;-57
2022/09/08 01:01:33;;;;;;;12.23;3.28;;;;;;;18.49;100.00;100736.56;5052190;28;20094;-58
2022/09/08 01:04:04;;;;;;;9.35;3.63;;;;;;;18.40;100.00;100738.31;5052195;28;20098;-54
2022/09/08 01:12:45;;;;;;;8.38;4.20;;;;;;;18.16;100.00;100738.09;5052186;28;20049;-58
2022/09/08 01:15:17;;;;;;;11.07;4.57;;;;;;;18.08;100.00;100733.53;5052086;28;20106;-58
2022/09/08 01:17:47;;;;;;;11.80;4.53;;;;;;;17.98;100.00;100735.44;5051791;28;20605;-52
2022/09/08 01:20:17;;;;;;;10.25;4.50;;;;;;;17.95;100.00;100738.41;5051467;28;20045;-52
2022/09/08 01:23:11;;;;;;;10.85;4.80;;;;;;;18.00;100.00;100752.91;5051932;28;20045;-57
2022/09/08 01:26:08;;;;;;;8.18;3.95;;;;;;;18.01;100.00;100738.63;5041151;28;20420;-57
2022/09/08 01:28:42;;;;;;;10.00;3.65;;;;;;;18.00;100.00;100731.63;5051863;28;20484;-49
2022/09/08 01:31:13;;;;;;;8.65;3.45;;;;;;;17.99;100.00;100727.28;5051762;28;20049;-50
2022/09/08 01:33:42;;;;;;;9.18;3.92;;;;;;;17.99;100.00;100724.63;5051709;28;20071;-54
2022/09/08 01:36:11;;;;;;;10.07;3.80;;;;;;;18.01;100.00;100711.16;5052126;28;20040;-49
2022/09/08 01:38:39;;;;;;;8.18;3.72;;;;;;;18.15;100.00;100713.31;5051741;28;20056;-53
2022/09/08 01:41:07;;;;;;;10.43;4.18;;;;;;;18.12;100.00;100713.63;5050423;28;20085;-53
2022/09/08 01:43:38;;;;;;;8.95;4.20;;;;;;;17.88;100.00;100716.84;5050708;28;20045;-57
2022/09/08 01:46:06;;;;;;;8.20;4.25;;;;;;;17.91;100.00;100716.53;5051628;28;20122;-51
2022/09/08 01:48:35;;;;;;;9.13;4.05;;;;;;;17.88;100.00;100717.69;5051696;28;20048;-58
2022/09/08 01:51:06;;;;;;;7.97;4.13;;;;;;;17.96;100.00;100721.47;5051505;28;20095;-55
2022/09/08 01:53:35;;;;;;;10.93;4.38;;;;;;;17.94;100.00;100724.25;5051627;28;20068;-58
2022/09/08 01:56:05;;;;;;;12.15;5.18;;;;;;;17.90;100.00;100720.19;5051501;28;20164;-52
2022/09/08 01:58:35;;;;;;;16.80;4.90;;;;;;;17.97;100.00;100709.81;5054146;28;20106;-58
2022/09/08 02:01:05;;;;;;;11.15;4.43;;;;;;;17.82;100.00;100698.81;5055172;28;20061;-58
2022/09/08 02:03:40;;;;;;;9.57;4.72;;;;;;;17.74;100.00;100695.09;5054358;28;20056;-58
2022/09/08 02:06:20;;;;;;;11.98;5.05;;;;;;;17.71;100.00;100679.44;5055131;28;20110;-57
2022/09/08 02:08:55;;;;;;;11.30;4.28;;;;;;;17.68;100.00;100647.84;5055024;28;20052;-57
2022/09/08 02:11:26;;;;;;;10.80;4.47;;;;;;;17.66;100.00;100639.16;5055108;28;20041;-59
2022/09/08 02:13:54;;;;;;;11.80;4.25;;;;;;;17.60;100.00;100658.41;5055122;28;20052;-58
2022/09/08 02:16:24;;;;;;;11.40;4.07;;;;;;;17.61;100.00;100672.53;5055059;28;20053;-57
2022/09/08 02:18:54;;;;;;;16.75;4.50;;;;;;;17.54;100.00;100677.59;5055170;28;20102;-59
2022/09/08 02:21:23;;;;;;;11.15;4.18;;;;;;;17.62;100.00;100676.88;5054953;28;20076;-58
2022/09/08 02:23:52;;;;;;;8.85;3.88;;;;;;;17.70;100.00;100672.44;5055278;28;20095;-58
2022/09/08 02:26:22;;;;;;;9.77;3.97;;;;;;;17.64;100.00;100664.25;5054862;28;20044;-58
2022/09/08 02:28:52;;;;;;;9.77;3.78;;;;;;;17.64;100.00;100659.78;5055022;28;20083;-57
2022/09/08 02:31:21;;;;;;;11.48;4.88;;;;;;;17.69;100.00;100652.16;5054648;28;20816;-57
2022/09/08 02:33:50;;;;;;;12.82;4.60;;;;;;;17.71;100.00;100657.31;5054844;28;20080;-59
2022/09/08 02:36:19;;;;;;;13.20;5.28;;;;;;;17.73;100.00;100640.22;5054786;28;20053;-59
2022/09/08 02:38:50;;;;;;;11.15;5.25;;;;;;;17.68;100.00;100636.34;5054838;28;20178;-59
2022/09/08 02:41:19;;;;;;;13.15;5.82;;;;;;;17.64;100.00;100627.88;5054689;28;20114;-59
2022/09/08 02:43:47;;;;;;;11.90;5.90;;;;;;;17.64;100.00;100625.22;5054606;28;20136;-57
2022/09/08 02:46:16;;;;;;;13.07;5.20;;;;;;;17.69;100.00;100622.91;5054314;28;20064;-57
2022/09/08 02:48:44;;;;;;;10.85;4.82;;;;;;;17.61;100.00;100624.66;5054716;28;20123;-57
2022/09/08 02:51:17;;;;;;;9.93;4.30;;;;;;;17.61;100.00;100619.34;5054308;28;20045;-59
2022/09/08 02:53:46;;;;;;;11.48;4.72;;;;;;;17.62;100.00;100618.38;5054509;28;20049;-58
2022/09/08 02:56:14;;;;;;;12.13;4.30;;;;;;;17.64;100.00;100609.25;5054392;28;20049;-57
2022/09/08 02:58:42;;;;;;;11.38;4.47;;;;;;;17.61;100.00;100609.53;5054484;28;20041;-57
2022/09/08 03:01:10;;;;;;;11.07;3.78;;;;;;;17.62;100.00;100605.06;5054159;28;20051;-58
2022/09/08 03:03:38;;;;;;;9.00;3.95;;;;;;;17.49;100.00;100600.97;5054430;28;20075;-58
2022/09/08 03:06:09;;;;;;;12.02;4.53;;;;;;;17.46;100.00;100601.25;5054127;28;20056;-56
2022/09/08 03:08:38;;;;;;;11.52;4.38;;;;;;;17.54;100.00;100600.50;5053644;28;20508;-58
2022/09/08 03:11:08;;;;;;;11.35;4.80;;;;;;;17.39;100.00;100605.50;5054150;28;20048;-59
2022/09/08 03:13:37;;;;;;;11.52;4.57;;;;;;;17.39;100.00;100605.50;5053878;28;20041;-58
2022/09/08 03:16:05;;;;;;;12.10;5.00;;;;;;;17.46;100.00;100597.75;5053915;28;20057;-59
2022/09/08 03:18:33;;;;;;;12.88;5.20;;;;;;;17.48;100.00;100595.78;5052808;28;20479;-58
2022/09/08 03:21:04;;;;;;;9.20;4.93;;;;;;;17.46;100.00;100593.28;5053902;28;20043;-57
2022/09/08 03:23:33;;;;;;;9.57;4.35;;;;;;;17.40;100.00;100592.06;5054124;28;20043;-57
2022/09/08 03:26:04;;;;;;;13.68;4.97;;;;;;;17.31;100.00;100590.28;5053787;28;20049;-59
2022/09/08 03:28:33;;;;;;;10.82;4.90;;;;;;;17.41;100.00;100587.59;5054047;28;20488;-59
2022/09/08 03:31:02;;;;;;;9.80;4.55;;;;;;;17.35;100.00;100581.03;5052540;28;20392;-57
2022/09/08 03:33:30;;;;;;;9.57;4.47;;;;;;;17.32;100.00;100589.31;5053692;28;20041;-57
2022/09/08 03:36:01;;;;;;;10.82;5.13;;;;;;;17.38;100.00;100577.25;5054089;28;20127;-57
2022/09/08 03:38:29;;;;;;;10.70;4.13;;;;;;;17.38;100.00;100578.09;5053857;28;20045;-57
2022/09/08 03:40:57;;;;;;;11.32;4.38;;;;;;;17.33;100.00;100575.06;5053736;28;20119;-58
2022/09/08 03:43:27;;;;;;;9.32;3.95;;;;;;;17.38;100.00;100578.09;5053499;28;20120;-57
2022/09/08 03:45:56;;;;;;;7.93;3.88;;;;;;;17.38;100.00;100570.13;5053238;28;20052;-57
2022/09/08 03:48:24;;;;;;;8.77;4.43;;;;;;;17.43;100.00;100564.34;5053207;28;20136;-59
2022/09/08 03:50:52;;;;;;;11.27;4.50;;;;;;;17.42;100.00;100567.16;5053186;28;20126;-60
2022/09/08 03:53:20;;;;;;;11.15;4.22;;;;;;;17.46;100.00;100563.22;5052659;28;20511;-59
2022/09/08 03:55:48;;;;;;;10.07;4.50;;;;;;;17.46;100.00;100558.72;5053232;28;20045;-59
2022/09/08 03:58:16;;;;;;;9.73;4.75;;;;;;;17.35;100.00;100561.59;5053207;28;20037;-59
2022/09/08 04:00:46;;;;;;;13.98;4.80;;;;;;;17.28;100.00;100565.88;5053033;28;20136;-58
2022/09/08 04:03:14;;;;;;;12.35;5.07;;;;;;;17.18;100.00;100568.59;5053262;28;20390;-58
2022/09/08 04:05:42;;;;;;;12.30;5.00;;;;;;;17.14;100.00;100576.00;5053062;28;20079;-57
2022/09/08 04:08:10;;;;;;;13.13;5.25;;;;;;;17.26;100.00;100586.41;5052805;28;20133;-59
2022/09/08 04:10:39;;;;;;;11.07;4.75;;;;;;;17.35;100.00;100580.22;5053017;28;20095;-59
2022/09/08 04:13:07;;;;;;;11.98;5.25;;;;;;;17.30;100.00;100587.78;5052672;28;20040;-57
2022/09/08 04:15:35;;;;;;;12.65;4.78;;;;;;;17.31;100.00;100592.94;5052669;28;20059;-57
2022/09/08 04:18:05;;;;;;;13.40;5.05;;;;;;;17.32;100.00;100593.81;5052710;28;20446;-58
2022/09/08 04:20:33;;;;;;;11.18;4.88;;;;;;;17.35;100.00;100604.13;5068787;28;20040;-57
2022/09/08 04:23:01;;;;;;;12.35;5.15;;;;;;;17.32;100.00;100604.44;5072879;28;20039;-59
2022/09/08 04:25:30;;;;;;;9.43;4.82;;;;;;;17.40;100.00;100591.22;5073063;28;20053;-57
2022/09/08 04:27:58;;;;;;;10.90;5.00;;;;;;;17.33;100.00;100604.28;5072643;28;20044;-58
2022/09/08 04:30:26;;;;;;;13.05;5.45;;;;;;;17.34;100.00;100608.63;5072678;28;20048;-57
2022/09/08 04:32:55;;;;;;;11.07;4.35;;;;;;;17.31;100.00;100606.25;5072285;28;20047;-58
2022/09/08 04:35:25;;;;;;;10.18;4.72;;;;;;;17.28;100.00;100611.88;5071428;28;20053;-58
2022/09/08 04:37:53;;;;;;;12.38;4.60;;;;;;;17.30;100.00;100601.06;5072476;28;20087;-58
2022/09/08 04:40:21;;;;;;;12.77;4.90;;;;;;;17.29;100.00;100610.88;5072656;28;20044;-58
2022/09/08 04:42:49;;;;;;;10.80;5.53;;;;;;;17.25;100.00;100625.47;5072475;28;20674;-57
2022/09/08 04:45:19;;;;;;;10.80;4.97;;;;;;;17.32;100.00;100621.22;5072353;28;20690;-56
2022/09/08 04:47:47;;;;;;;12.43;5.55;;;;;;;17.36;100.00;100627.91;5104647;28;20053;-57
2022/09/08 04:50:15;;;;;;;13.20;5.80;;;;;;;17.31;100.00;100635.47;5072294;28;20048;-57
2022/09/08 04:52:45;;;;;;;12.80;6.03;;;;;;;17.28;100.00;100635.78;5072160;28;20044;-56
2022/09/08 04:55:13;;;;;;;10.40;5.47;;;;;;;17.08;100.00;100636.88;5072246;28;20056;-55
2022/09/08 04:57:42;;;;;;;9.45;5.07;;;;;;;17.18;100.00;100640.31;5072185;28;20072;-57
2022/09/08 05:00:12;;;;;;;10.88;4.35;;;;;;;17.14;100.00;100647.75;5072467;28;20063;-57
2022/09/08 05:02:45;;;;;;;;;;;;;;;17.03;100.00;100651.44;5072598;28;20064;-57
2022/09/08 05:05:13;;;;;;;8.60;4.20;;;;;;;17.03;100.00;100664.72;5072119;28;20364;-58
2022/09/08 05:07:41;;;;;;;7.47;3.85;;;;;;;17.02;100.00;100657.72;5071981;28;20052;-58
2022/09/08 05:10:11;;;;;;;9.95;4.18;;;;;;;17.02;100.00;100676.31;5072231;28;20113;-57
2022/09/08 05:12:39;;;;;;;9.60;4.25;;;;;;;16.96;100.00;100670.75;5072101;28;20052;-54
2022/09/08 05:15:08;;;;;;;10.30;4.10;;;;;;;16.97;100.00;100678.56;5071971;28;20045;-55
2022/09/08 05:17:36;;;;;;;10.30;4.75;;;;;;;16.97;100.00;100677.75;5072108;28;20048;-55
2022/09/08 05:20:06;;;;;;;13.25;4.82;;;;;;;16.96;100.00;100692.84;5071906;28;20044;-53
2022/09/08 05:22:34;;;;;;;9.80;4.22;;;;;;;16.93;100.00;100693.13;5070709;28;20116;-53
2022/09/08 05:25:03;;;;;;;12.25;5.13;;;;;;;16.96;100.00;100686.69;5071821;28;20040;-55
2022/09/08 05:27:32;;;;;;;14.30;5.63;;;;;;;16.98;100.00;100677.59;5072069;28;20446;-53
2022/09/08 05:30:00;;;;;;;14.35;5.68;;;;;;;16.90;100.00;100665.03;5072140;28;20148;-57
2022/09/08 05:32:28;;;;;;;12.02;5.00;;;;;;;16.81;100.00;100660.59;5072870;28;20101;-56
2022/09/08 05:34:56;;;;;;;12.13;5.13;;;;;;;16.89;100.00;100650.09;5076102;28;20468;-51
2022/09/08 05:37:27;;;;;;;12.18;5.05;;;;;;;16.80;100.00;100637.66;5075976;28;20048;-53
2022/09/08 05:39:56;;;;;;;11.07;5.35;;;;;;;16.83;100.00;100629.38;5075827;28;20098;-56
2022/09/08 05:42:24;;;;;;;14.80;5.35;;;;;;;16.77;100.00;100637.09;5075823;28;20045;-57
2022/09/08 05:44:53;;;;;;;12.90;5.03;;;;;;;16.76;100.00;100630.97;5076078;28;20597;-58
2022/09/08 05:47:21;;;;;;;14.32;4.97;;;;;;;16.75;100.00;100639.09;5075315;28;20056;-56
2022/09/08 05:49:58;;;;;;;10.32;4.95;;;;;;;16.76;100.00;100635.44;5075920;28;20055;-57
2022/09/08 05:52:31;;;;;;;11.60;5.47;;;;;;;16.71;100.00;100626.09;5075689;28;20463;-57
2022/09/08 05:54:59;;;;;;;11.07;5.45;;;;;;;16.72;100.00;100625.09;5075507;28;20045;-55
2022/09/08 05:57:28;;;;;;;12.50;5.55;;;;;;;16.75;100.00;100631.94;5075544;28;20054;-58
2022/09/08 05:59:58;;;;;;;10.57;5.10;;;;;;;16.70;100.00;100624.41;5075639;28;20044;-58
2022/09/08 06:02:26;;;;;;;10.57;5.13;;;;;;;16.71;100.00;100630.56;5075488;28;20075;-58
2022/09/08 06:04:55;;;;;;;10.07;5.30;;;;;;;16.68;100.00;100629.03;5074004;28;20454;-54
2022/09/08 06:07:35;;;;;;;11.00;5.78;;;;;;;16.65;100.00;100633.81;5074935;28;20048;-57
2022/09/08 06:10:05;;;;;;;9.68;5.55;;;;;;;16.62;100.00;100629.63;5075120;28;20048;-58
2022/09/08 06:12:33;;;;;;;11.57;5.78;;;;;;;16.64;100.00;100638.25;5075335;28;20047;-58
2022/09/08 06:15:03;;;;;;;11.80;5.80;;;;;;;16.61;100.00;100638.56;5075381;28;20546;-57
2022/09/08 06:17:31;;;;;;;10.88;5.50;;;;;;;16.69;100.00;100641.31;5075218;28;20040;-58
2022/09/08 06:19:59;;;;;;;12.57;5.53;;;;;;;16.73;100.00;100641.88;5075268;28;20062;-57
2022/09/08 06:22:42;;;;;;;11.90;6.32;;;;;;;16.76;100.00;100643.41;5075023;28;20079;-57
2022/09/08 06:25:14;;;;;;;11.43;6.35;;;;;;;16.75;100.00;100649.69;5075134;28;20052;-58
2022/09/08 06:27:53;;;;;;;13.25;6.65;;;;;;;16.75;100.00;100649.69;5075049;28;20044;-58
2022/09/08 06:30:23;;;;;;;12.27;6.60;;;;;;;16.73;100.00;100652.50;5074970;28;20075;-58
2022/09/08 06:33:20;;;;;;;13.38;6.82;;;;;;;16.66;100.00;100656.69;5073615;28;20053;-57
2022/09/08 06:36:09;;;;;;;13.30;7.05;;;;;;;16.52;100.00;100661.50;5075051;28;20059;-58
2022/09/08 06:38:44;;;;;;;15.75;7.57;;;;;;;16.54;100.00;100670.16;5074638;28;20139;-56
2022/09/08 06:41:15;;;;;;;11.48;6.80;;;;;;;16.58;100.00;100660.09;5074845;28;20431;-56
2022/09/08 06:43:50;;;;;;;16.55;6.55;;;;;;;16.65;100.00;100670.97;5074893;28;20419;-56
2022/09/08 06:46:26;;;;;;;14.32;6.07;;;;;;;16.64;100.00;100672.78;5074325;28;20052;-59
2022/09/08 06:48:55;;;;;;;13.43;5.90;;;;;;;16.57;100.00;100666.38;5074579;28;20518;-58
2022/09/08 06:51:41;;;;;;;11.38;6.20;;;;;;;16.66;100.00;100675.28;5074544;28;20045;-57
2022/09/08 06:54:26;;;;;;;11.23;5.57;;;;;;;16.67;100.00;100676.97;5074196;28;20369;-57
2022/09/08 06:57:09;;;;;;;12.23;5.38;;;;;;;16.70;100.00;100674.88;5074468;28;20411;-54
2022/09/08 07:00:06;;;;;;;12.10;5.78;;;;;;;16.70;100.00;100684.63;5074612;28;20514;-58
2022/09/08 07:02:51;;;;;;;11.05;5.32;;;;;;;16.75;100.00;100670.94;5074427;28;20106;-56
2022/09/08 07:05:45;;;;;;;11.10;5.50;;;;;;;16.70;100.00;100677.53;5074357;28;20458;-57
2022/09/08 07:08:21;;;;;;;;;;;;;;;16.72;100.00;100678.19;5074791;28;20049;-57
2022/09/08 07:10:55;;;;;;;10.30;5.60;;;;;;;16.75;100.00;100684.22;5074470;28;19989;-58
2022/09/08 07:13:37;;;;;;;12.70;6.38;;;;;;;16.81;100.00;100679.16;5074394;28;20407;-58
2022/09/08 07:16:18;;;;;;;12.63;6.30;;;;;;;16.75;100.00;100676.25;5074019;28;20052;-57
2022/09/08 07:18:53;;;;;;;10.95;5.70;;;;;;;16.77;100.00;100675.13;5074243;28;20064;-58
2022/09/08 07:21:30;;;;;;;12.95;5.72;;;;;;;16.76;100.00;100678.75;5073995;28;20098;-58
2022/09/08 07:23:59;;;;;;;11.27;5.70;;;;;;;16.80;100.00;100687.28;5074069;28;20060;-59
2022/09/08 07:26:34;;;;;;;10.98;5.38;;;;;;;16.77;100.00;100683.09;5073893;28;20040;-59
2022/09/08 07:29:07;;;;;;;8.73;5.38;;;;;;;16.85;100.00;100685.88;5073932;28;20052;-57
2022/09/08 07:31:44;;;;;;;10.15;5.10;;;;;;;16.87;100.00;100689.19;5073944;28;20052;-58
2022/09/08 07:34:19;;;;;;;11.93;5.63;;;;;;;16.84;100.00;100680.72;5073554;28;20053;-58
2022/09/08 07:36:54;;;;;;;11.90;5.78;;;;;;;16.86;100.00;100689.34;5073846;28;20044;-58
2022/09/08 07:39:31;;;;;;;11.10;5.78;;;;;;;16.87;100.00;100688.38;5073693;28;20080;-58
2022/09/08 07:42:02;;;;;;;10.63;6.20;;;;;;;16.85;100.00;100685.00;5073765;28;20094;-56
2022/09/08 07:44:33;;;;;;;13.18;6.32;;;;;;;16.88;100.00;100687.41;5073593;28;20051;-58
2022/09/08 07:47:24;;;;;;;10.27;6.40;;;;;;;16.92;100.00;100683.50;5073303;28;20091;-57
2022/09/08 07:50:00;;;;;;;12.23;6.88;;;;;;;16.96;100.00;100676.91;5073562;28;20048;-57
2022/09/08 07:52:37;;;;;;;12.80;6.70;;;;;;;16.89;100.00;100673.16;5105957;28;20056;-59
2022/09/08 07:55:21;;;;;;;13.43;7.95;;;;;;;16.92;100.00;100680.00;5072874;28;20039;-59
2022/09/08 07:57:59;;;;;;;;;;;;;;;16.94;100.00;100686.84;5073936;28;20037;-60
2022/09/08 08:00:37;;;;;;;10.23;6.43;;;;;;;17.03;100.00;100693.13;5073359;28;20350;-58
2022/09/08 08:03:31;;;;;;;11.32;7.03;;;;;;;17.03;100.00;100703.75;5073344;28;20435;-58
2022/09/08 08:06:09;;;;;;;11.38;7.18;;;;;;;17.03;100.00;100701.91;5073006;28;20048;-56
2022/09/08 08:08:52;;;;;;;11.02;7.38;;;;;;;17.04;100.00;100700.06;5072997;28;20048;-60
2022/09/08 08:11:31;;;;;;;12.20;7.85;;;;;;;17.03;100.00;100701.09;5071850;28;20070;-59
2022/09/08 08:14:10;;;;;;;11.50;7.97;;;;;;;17.10;100.00;100701.31;5072839;28;20078;-58
2022/09/08 08:16:51;;;;;;;11.95;7.95;;;;;;;17.05;100.00;100705.25;5073214;28;20064;-58
2022/09/08 08:19:40;;;;;;;14.80;9.05;;;;;;;17.10;100.00;100696.84;5072658;28;20052;-58
2022/09/08 08:22:18;;;;;;;12.07;9.13;;;;;;;17.07;100.00;100694.50;5065978;28;20068;-58
2022/09/08 08:24:58;;;;;;;12.05;9.30;;;;;;;17.16;100.00;100696.25;5072825;28;20111;-59
2022/09/08 08:27:30;;;;;;;12.40;8.80;;;;;;;17.20;100.00;100699.47;5072547;28;20045;-57
2022/09/08 08:30:20;;;;;;;11.52;8.75;;;;;;;17.24;100.00;100706.97;5072888;28;20052;-59
2022/09/08 08:32:56;;;;;;;14.15;8.80;;;;;;;17.23;100.00;100713.31;5071406;28;20052;-57
2022/09/08 08:35:31;;;;;;;12.88;9.10;;;;;;;17.27;100.00;100708.50;5072326;28;20044;-57
2022/09/08 08:38:02;;;;;;;12.15;8.65;;;;;;;17.38;100.00;100708.34;5072648;28;20123;-59
2022/09/08 08:40:37;;;;;;;10.93;8.40;;;;;;;17.47;100.00;100709.25;5072470;28;20495;-59
2022/09/08 08:43:39;;;;;;;11.70;9.57;;;;;;;17.55;100.00;100708.53;5072507;28;20552;-60
2022/09/08 08:46:23;;;;;;;11.77;9.90;;;;;;;17.70;100.00;100707.03;5070487;28;20118;-60
2022/09/08 08:49:07;;;;;;;13.63;9.73;;;;;;;17.80;100.00;100711.44;5072376;28;20056;-59
2022/09/08 08:51:58;;;;;;;12.35;9.75;;;;;;;17.84;100.00;100718.13;5072456;28;20044;-58
2022/09/08 08:55:02;;;;;;;12.82;9.55;;;;;;;17.78;100.00;100719.59;5072250;28;20052;-58
2022/09/08 08:57:53;;;;;;;13.63;9.75;;;;;;;17.93;100.00;100714.63;5072524;28;20080;-60
2022/09/08 09:00:23;;;;;;;12.57;9.10;;;;;;;18.10;100.00;100706.78;5072412;28;20102;-59
2022/09/08 09:03:18;;;;;;;13.38;9.52;;;;;;;18.42;100.00;100716.88;5072187;28;20548;-59
2022/09/08 09:06:06;;;;;;;11.98;7.35;;;;;;;18.85;100.00;100715.16;5072199;28;20076;-59
2022/09/08 09:09:00;;;;;;;11.00;7.70;;;;;;;19.26;100.00;100706.56;5071898;28;20106;-61
2022/09/08 09:11:51;;;;;;;10.43;6.80;;;;;;;19.23;100.00;100709.56;5055872;28;20053;-61
2022/09/08 09:14:39;;;;;;;9.10;5.68;;;;;;;19.17;100.00;100710.19;5072168;28;20056;-60
2022/09/08 09:17:52;;;;;;;10.52;5.75;;;;;;;19.14;100.00;100718.50;5072150;28;20127;-63
2022/09/08 09:20:38;;;;;;;9.40;5.80;;;;;;;19.38;100.00;100712.47;5072248;28;20075;-61
2022/09/08 09:23:14;;;;;;;10.60;5.35;;;;;;;19.37;100.00;100710.78;5072139;28;20109;-63
2022/09/08 09:25:57;;;;;;;10.93;5.50;;;;;;;19.26;100.00;100706.56;5071961;28;20044;-60
2022/09/08 09:28:48;;;;;;;9.02;5.47;;;;;;;19.61;100.00;100699.38;5072511;28;20064;-61
2022/09/08 09:31:39;;;;;;;9.27;5.10;;;;;;;19.85;100.00;100706.63;5071957;28;20051;-63
2022/09/08 09:34:24;;;;;;;9.85;5.35;;;;;;;19.88;100.00;100708.13;5039173;28;20064;-61
2022/09/08 09:37:14;;;;;;;9.15;5.22;;;;;;;20.13;100.00;100692.16;5071714;28;20049;-62
2022/09/08 09:39:56;;;;;;;10.00;5.28;;;;;;;20.22;100.00;100696.47;5071710;28;20048;-62
2022/09/08 09:42:36;;;;;;;10.05;4.90;;;;;;;20.48;100.00;100693.63;5104331;28;20059;-62
2022/09/08 09:45:26;;;;;;;9.20;4.65;;;;;;;20.71;100.00;100692.94;5070758;28;20558;-62
2022/09/08 09:48:17;;;;;;;10.18;4.57;;;;;;;20.62;100.00;100692.09;5071496;28;20102;-62
2022/09/08 09:51:07;;;;;;;7.82;4.18;;;;;;;20.72;100.00;100695.47;5071960;28;20087;-62
2022/09/08 09:53:52;;;;;;;9.18;3.80;;;;;;;20.67;100.00;100700.44;5071851;28;20442;-62
2022/09/08 09:56:51;;;;;;;7.25;3.67;;;;;;;20.64;100.00;100692.75;5071627;28;20045;-63
2022/09/08 10:00:04;;;;;;;9.02;3.90;;;;;;;20.59;100.00;100693.28;5071581;28;20394;-62
2022/09/08 10:03:01;;;;;;;9.32;4.10;;;;;;;20.68;100.00;100686.13;5071531;28;20143;-62
2022/09/08 10:06:21;;;;;;;8.20;3.53;;;;;;;20.63;100.00;100685.75;5071626;28;20044;-62
2022/09/08 10:09:30;;;;;;;7.47;3.25;;;;;;;20.76;100.00;100686.13;5071706;28;20052;-63
2022/09/08 10:12:35;;;;;;;7.57;3.38;;;;;;;20.86;100.00;100682.38;5071615;28;20075;-63
2022/09/08 10:15:49;;;;;;;7.15;3.50;;;;;;;20.88;100.00;100691.91;5071247;28;20047;-63
2022/09/08 10:18:33;;;;;;;;;;;;;;;21.01;100.00;100687.84;5071153;28;20057;-63
2022/09/08 10:21:45;;;;;;;6.57;3.28;;;;;;;21.11;100.00;100685.81;5075148;28;19970;-62
2022/09/08 10:24:40;;;;;;;7.53;3.05;;;;;;;21.38;100.00;100671.16;5061893;28;20052;-62
2022/09/08 10:27:51;;;;;;;7.32;3.25;;;;;;;21.59;100.00;100659.84;5074654;28;20048;-63
2022/09/08 10:30:23;;;;;;;6.88;2.90;;;;;;;21.65;99.55;100661.03;5073438;28;20044;-62
2022/09/08 10:33:26;;;;;;;9.57;2.97;;;;;;;21.59;97.84;100665.22;5074729;28;20403;-62
2022/09/08 10:36:06;;;;;;;6.10;2.60;;;;;;;21.48;99.31;100668.25;5075031;28;20045;-62
2022/09/08 10:38:52;;;;;;;4.60;2.13;;;;;;;21.64;95.71;100662.03;5074867;28;20036;-62
2022/09/08 10:41:48;;;;;;;6.53;2.65;;;;;;;22.07;100.00;100665.06;5074395;28;20045;-62
2022/09/08 10:44:39;;;;;;;7.20;2.45;;;;;;;22.55;97.46;100656.78;5074176;28;20106;-62
2022/09/08 10:47:57;;;;;;;5.68;2.00;;;;;;;23.21;89.19;100656.03;5074153;28;20492;-62
2022/09/08 10:50:30;;;;;;;5.22;2.10;;;;;;;22.98;86.45;100658.00;5074501;28;20396;-62
2022/09/08 10:53:53;;;;;;;5.55;2.40;;;;;;;22.94;88.69;100663.69;5073173;28;20040;-63
2022/09/08 10:56:26;;;;;;;5.05;2.30;;;;;;;22.75;86.37;100666.94;5074283;28;20098;-63
2022/09/08 10:59:45;;;;;;;5.68;2.28;;;;;;;22.70;87.08;100667.50;5074355;28;20131;-64
2022/09/08 11:02:31;;;;;;;4.97;1.70;;;;;;;22.49;85.68;100662.03;5074397;28;20491;-63
2022/09/08 11:05:36;;;;;;;5.57;2.33;;;;;;;22.41;84.28;100665.63;5074267;28;20040;-62
2022/09/08 11:08:41;;;;;;;4.75;1.80;;;;;;;22.34;85.55;100668.19;5074749;28;20048;-63
2022/09/08 11:11:42;;;;;;;5.20;2.30;;;;;;;22.21;87.09;100658.06;5074244;28;20401;-63
2022/09/08 11:14:30;;;;;;;6.28;2.28;;;;;;;22.45;92.21;100667.78;5074077;28;20056;-63
2022/09/08 11:17:11;;;;;;;6.35;2.30;;;;;;;22.78;89.45;100667.41;5074437;28;20399;-63
2022/09/08 11:19:41;;;;;;;7.13;2.45;;;;;;;23.20;82.87;100666.94;5074228;28;20060;-64
2022/09/08 11:22:37;;;;;;;7.50;2.28;;;;;;;22.99;82.44;100663.16;5073861;28;20526;-64
2022/09/08 11:25:28;;;;;;;6.78;1.90;;;;;;;23.09;85.13;100661.00;5074038;28;20123;-61
2022/09/08 11:28:09;;;;;;;8.20;2.22;;;;;;;23.07;83.26;100659.53;5074001;28;20067;-63
2022/09/08 11:30:46;;;;;;;6.25;2.17;;;;;;;22.95;82.95;100660.00;5073198;28;20140;-62
2022/09/08 11:33:34;;;;;;;5.28;2.15;;;;;;;23.02;79.71;100665.47;5106238;28;20076;-63
2022/09/08 11:36:16;;;;;;;5.68;1.70;;;;;;;23.82;78.06;100660.22;5073897;28;20040;-62
2022/09/08 11:38:57;;;;;;;7.90;2.00;;;;;;;24.01;75.45;100650.72;5073764;28;20051;-63
2022/09/08 11:42:01;;;;;;;6.28;1.90;;;;;;;23.85;77.46;100653.63;5073534;28;20059;-62
2022/09/08 11:44:51;;;;;;;7.65;1.50;;;;;;;23.54;72.65;100649.38;5072122;28;20119;-61
2022/09/08 11:47:52;;;;;;;5.25;1.52;;;;;;;23.36;77.10;100661.38;5073327;28;20102;-62
2022/09/08 11:50:40;;;;;;;5.25;1.58;;;;;;;23.34;76.50;100659.88;5073443;28;20075;-62
2022/09/08 11:53:45;;;;;;;8.68;1.48;;;;;;;22.96;73.25;100658.19;5073529;28;20086;-61
2022/09/08 11:57:16;;;;;;;5.85;1.58;;;;;;;22.58;75.96;100652.91;5073223;28;20090;-63
2022/09/08 12:00:32;;;;;;;6.47;1.70;;;;;;;22.90;77.93;100642.81;5073337;28;20044;-63
2022/09/08 12:03:38;;;;;;;8.93;1.80;;;;;;;23.61;76.85;100648.44;5063392;28;20056;-62
2022/09/08 12:06:37;;;;;;;7.63;1.70;;;;;;;24.38;75.25;100639.81;5072766;28;20052;-61
2022/09/08 12:09:52;;;;;;;7.70;1.60;;;;;;;24.85;70.70;100629.38;5042977;28;20059;-64